sensor_id;sensor_type;location;lat;lon;timestamp;pressure;altitude;pressure_sealevel;temperature;humidity
70407;BME280;57821;52.202;0.154;2023-08-06T00:01:50;101129.34;;;12.18;97.96
70407;BME280;57821;52.202;0.154;2023-08-06T00:04:18;101147.50;;;12.24;98.55
70407;BME280;57821;52.202;0.154;2023-08-06T00:06:44;101152.72;;;12.21;98.15
70407;BME280;57821;52.202;0.154;2023-08-06T00:09:11;101151.00;;;12.17;98.32
70407;BME280;57821;52.202;0.154;2023-08-06T00:11:37;101168.34;;;12.17;98.24
70407;BME280;57821;52.202;0.154;2023-08-06T00:14:04;101159.69;;;12.13;98.22
70407;BME280;57821;52.202;0.154;2023-08-06T00:16:31;101158.84;;;12.10;98.38
70407;BME280;57821;52.202;0.154;2023-08-06T00:18:57;101157.09;;;12.09;97.85
70407;BME280;57821;52.202;0.154;2023-08-06T00:21:24;101156.28;;;12.05;98.37
70407;BME280;57821;52.202;0.154;2023-08-06T00:23:50;101170.97;;;12.06;97.65
70407;BME280;57821;52.202;0.154;2023-08-06T00:26:17;101174.47;;;12.05;98.66
70407;BME280;57821;52.202;0.154;2023-08-06T00:28:43;101171.00;;;12.02;98.15
70407;BME280;57821;52.202;0.154;2023-08-06T00:31:10;101171.88;;;11.99;98.59
70407;BME280;57821;52.202;0.154;2023-08-06T00:33:37;101173.59;;;11.94;98.37
70407;BME280;57821;52.202;0.154;2023-08-06T00:36:03;101158.88;;;11.88;98.60
70407;BME280;57821;52.202;0.154;2023-08-06T00:38:30;101160.66;;;11.86;98.14
70407;BME280;57821;52.202;0.154;2023-08-06T00:40:57;101182.25;;;11.96;98.54
70407;BME280;57821;52.202;0.154;2023-08-06T00:43:23;101177.94;;;11.90;98.76
70407;BME280;57821;52.202;0.154;2023-08-06T00:45:50;101189.19;;;11.94;99.09
70407;BME280;57821;52.202;0.154;2023-08-06T00:48:17;101194.38;;;11.96;98.95
70407;BME280;57821;52.202;0.154;2023-08-06T00:50:44;101204.78;;;11.97;99.21
70407;BME280;57821;52.202;0.154;2023-08-06T00:53:11;101193.53;;;11.95;98.43
70407;BME280;57821;52.202;0.154;2023-08-06T00:55:41;101204.78;;;11.97;98.42
70407;BME280;57821;52.202;0.154;2023-08-06T00:58:09;101195.25;;;11.94;98.69
70407;BME280;57821;52.202;0.154;2023-08-06T01:00:36;101197.00;;;11.89;98.60
70407;BME280;57821;52.202;0.154;2023-08-06T01:03:03;101209.13;;;11.97;98.71
70407;BME280;57821;52.202;0.154;2023-08-06T01:05:30;101204.78;;;11.99;98.67
70407;BME280;57821;52.202;0.154;2023-08-06T01:08:16;101204.78;;;11.97;98.19
70407;BME280;57821;52.202;0.154;2023-08-06T01:13:38;101210.84;;;11.94;98.07
70407;BME280;57821;52.202;0.154;2023-08-06T01:16:09;101224.72;;;11.93;98.13
70407;BME280;57821;52.202;0.154;2023-08-06T01:18:36;101218.66;;;11.90;97.65
70407;BME280;57821;52.202;0.154;2023-08-06T01:21:04;101216.06;;;11.88;97.62
70407;BME280;57821;52.202;0.154;2023-08-06T01:23:31;101217.78;;;11.83;97.11
70407;BME280;57821;52.202;0.154;2023-08-06T01:31:35;101213.44;;;11.66;97.59
70407;BME280;57821;52.202;0.154;2023-08-06T01:34:05;101208.25;;;11.60;97.14
70407;BME280;57821;52.202;0.154;2023-08-06T01:36:32;101235.13;;;11.69;97.14
70407;BME280;57821;52.202;0.154;2023-08-06T01:39:00;101226.44;;;11.61;97.41
70407;BME280;57821;52.202;0.154;2023-08-06T01:41:26;101242.06;;;11.64;97.86
70407;BME280;57821;52.202;0.154;2023-08-06T01:43:53;101225.59;;;11.54;97.36
70407;BME280;57821;52.202;0.154;2023-08-06T01:46:19;101242.06;;;11.58;96.95
70407;BME280;57821;52.202;0.154;2023-08-06T01:48:46;101253.28;;;11.56;97.44
70407;BME280;57821;52.202;0.154;2023-08-06T01:51:13;101237.72;;;11.49;96.93
70407;BME280;57821;52.202;0.154;2023-08-06T01:53:39;101236.84;;;11.46;97.41
70407;BME280;57821;52.202;0.154;2023-08-06T01:56:06;101251.56;;;11.48;97.21
70407;BME280;57821;52.202;0.154;2023-08-06T01:58:34;101244.63;;;11.44;96.67
70407;BME280;57821;52.202;0.154;2023-08-06T02:01:01;101238.56;;;11.36;97.46
70407;BME280;57821;52.202;0.154;2023-08-06T02:03:28;101249.84;;;11.41;97.30
70407;BME280;57821;52.202;0.154;2023-08-06T02:05:54;101260.22;;;11.38;97.29
70407;BME280;57821;52.202;0.154;2023-08-06T02:08:21;101262.81;;;11.38;97.39
70407;BME280;57821;52.202;0.154;2023-08-06T02:10:48;101265.41;;;11.35;96.66
70407;BME280;57821;52.202;0.154;2023-08-06T02:13:14;101257.59;;;11.32;96.47
70407;BME280;57821;52.202;0.154;2023-08-06T02:15:42;101259.31;;;11.30;97.11
70407;BME280;57821;52.202;0.154;2023-08-06T02:18:09;101261.03;;;11.25;96.98
70407;BME280;57821;52.202;0.154;2023-08-06T02:20:36;101263.66;;;11.25;96.68
70407;BME280;57821;52.202;0.154;2023-08-06T02:23:02;101267.09;;;11.24;96.91
70407;BME280;57821;52.202;0.154;2023-08-06T02:25:29;101269.69;;;11.20;97.02
70407;BME280;57821;52.202;0.154;2023-08-06T02:27:55;101265.38;;;11.20;96.79
70407;BME280;57821;52.202;0.154;2023-08-06T02:30:22;101265.38;;;11.17;96.77
70407;BME280;57821;52.202;0.154;2023-08-06T02:32:49;101263.63;;;11.16;97.12
70407;BME280;57821;52.202;0.154;2023-08-06T02:35:15;101266.22;;;11.16;97.10
70407;BME280;57821;52.202;0.154;2023-08-06T02:37:42;101267.97;;;11.11;96.90
70407;BME280;57821;52.202;0.154;2023-08-06T02:40:09;101270.53;;;11.09;97.28
70407;BME280;57821;52.202;0.154;2023-08-06T02:42:36;101271.41;;;11.05;96.82
70407;BME280;57821;52.202;0.154;2023-08-06T02:45:03;101280.03;;;11.07;97.00
70407;BME280;57821;52.202;0.154;2023-08-06T02:47:29;101274.84;;;11.07;97.03
70407;BME280;57821;52.202;0.154;2023-08-06T02:49:56;101269.66;;;11.01;96.72
70407;BME280;57821;52.202;0.154;2023-08-06T02:52:23;101275.72;;;11.05;96.64
70407;BME280;57821;52.202;0.154;2023-08-06T02:54:50;101267.91;;;10.97;97.03
70407;BME280;57821;52.202;0.154;2023-08-06T02:57:16;101280.06;;;11.04;96.61
70407;BME280;57821;52.202;0.154;2023-08-06T02:59:43;101284.34;;;11.01;96.78
70407;BME280;57821;52.202;0.154;2023-08-06T03:02:16;101272.25;;;10.94;96.67
70407;BME280;57821;52.202;0.154;2023-08-06T03:04:55;101280.91;;;10.99;97.09
70407;BME280;57821;52.202;0.154;2023-08-06T03:07:25;101274.81;;;10.95;96.55
70407;BME280;57821;52.202;0.154;2023-08-06T03:09:57;101280.00;;;10.95;96.82
70407;BME280;57821;52.202;0.154;2023-08-06T03:12:25;101279.16;;;10.95;97.24
70407;BME280;57821;52.202;0.154;2023-08-06T03:14:52;101272.22;;;10.91;96.96
70407;BME280;57821;52.202;0.154;2023-08-06T03:17:19;101277.38;;;10.89;96.63
70407;BME280;57821;52.202;0.154;2023-08-06T03:19:45;101271.34;;;10.86;96.60
70407;BME280;57821;52.202;0.154;2023-08-06T03:22:13;101277.38;;;10.85;96.31
70407;BME280;57821;52.202;0.154;2023-08-06T03:24:40;101279.13;;;10.86;96.94
70407;BME280;57821;52.202;0.154;2023-08-06T03:27:07;101288.63;;;10.84;96.42
70407;BME280;57821;52.202;0.154;2023-08-06T03:29:37;101279.09;;;10.80;96.85
70407;BME280;57821;52.202;0.154;2023-08-06T03:32:03;101282.56;;;10.80;96.79
70407;BME280;57821;52.202;0.154;2023-08-06T03:34:30;101292.91;;;10.79;96.96
70407;BME280;57821;52.202;0.154;2023-08-06T03:36:57;101274.75;;;10.69;97.29
70407;BME280;57821;52.202;0.154;2023-08-06T03:39:23;101296.38;;;10.78;97.18
70407;BME280;57821;52.202;0.154;2023-08-06T03:41:50;101287.75;;;10.76;96.72
70407;BME280;57821;52.202;0.154;2023-08-06T03:44:17;101273.84;;;10.61;96.82
70407;BME280;57821;52.202;0.154;2023-08-06T03:46:45;101298.09;;;10.73;97.10
70407;BME280;57821;52.202;0.154;2023-08-06T03:49:11;101285.09;;;10.65;96.98
70407;BME280;57821;52.202;0.154;2023-08-06T03:51:40;101295.47;;;10.66;96.47
70407;BME280;57821;52.202;0.154;2023-08-06T03:54:06;101299.81;;;10.70;96.17
70407;BME280;57821;52.202;0.154;2023-08-06T03:56:33;101278.13;;;10.56;96.53
70407;BME280;57821;52.202;0.154;2023-08-06T03:58:59;101291.16;;;10.65;96.04
70407;BME280;57821;52.202;0.154;2023-08-06T04:01:26;101293.72;;;10.62;96.31
70407;BME280;57821;52.202;0.154;2023-08-06T04:03:53;101283.34;;;10.61;96.23
70407;BME280;57821;52.202;0.154;2023-08-06T04:06:20;101299.75;;;10.61;96.65
70407;BME280;57821;52.202;0.154;2023-08-06T04:08:46;101304.09;;;10.59;96.74
70407;BME280;57821;52.202;0.154;2023-08-06T04:11:13;101275.50;;;10.47;96.48
70407;BME280;57821;52.202;0.154;2023-08-06T04:13:44;101304.09;;;10.58;96.73
70407;BME280;57821;52.202;0.154;2023-08-06T04:16:10;101301.47;;;10.53;96.82
70407;BME280;57821;52.202;0.154;2023-08-06T04:18:37;101305.81;;;10.57;96.31
70407;BME280;57821;52.202;0.154;2023-08-06T04:21:04;101318.75;;;10.54;95.89
70407;BME280;57821;52.202;0.154;2023-08-06T04:23:30;101308.38;;;10.51;96.34
70407;BME280;57821;52.202;0.154;2023-08-06T04:26:01;101318.75;;;10.54;96.51
70407;BME280;57821;52.202;0.154;2023-08-06T04:28:32;101308.31;;;10.45;96.30
70407;BME280;57821;52.202;0.154;2023-08-06T04:30:59;101320.44;;;10.49;95.85
70407;BME280;57821;52.202;0.154;2023-08-06T04:33:26;101330.81;;;10.51;96.31
70407;BME280;57821;52.202;0.154;2023-08-06T04:35:56;101333.41;;;10.49;96.22
70407;BME280;57821;52.202;0.154;2023-08-06T04:38:25;101331.69;;;10.47;96.28
70407;BME280;57821;52.202;0.154;2023-08-06T04:40:53;101336.03;;;10.52;96.29
70407;BME280;57821;52.202;0.154;2023-08-06T04:43:21;101328.19;;;10.45;96.26
70407;BME280;57821;52.202;0.154;2023-08-06T04:45:49;101330.81;;;10.46;96.12
70407;BME280;57821;52.202;0.154;2023-08-06T04:48:16;101336.00;;;10.51;96.02
70407;BME280;57821;52.202;0.154;2023-08-06T04:50:44;101338.59;;;10.51;95.69
70407;BME280;57821;52.202;0.154;2023-08-06T04:53:13;101338.59;;;10.51;96.60
70407;BME280;57821;52.202;0.154;2023-08-06T04:55:39;101342.91;;;10.47;96.10
70407;BME280;57821;52.202;0.154;2023-08-06T04:58:06;101344.66;;;10.51;96.51
70407;BME280;57821;52.202;0.154;2023-08-06T05:00:33;101343.78;;;10.51;96.07
70407;BME280;57821;52.202;0.154;2023-08-06T05:03:00;101350.72;;;10.52;95.78
70407;BME280;57821;52.202;0.154;2023-08-06T05:05:27;101350.69;;;10.47;96.32
70407;BME280;57821;52.202;0.154;2023-08-06T05:07:56;101348.09;;;10.49;96.31
70407;BME280;57821;52.202;0.154;2023-08-06T05:10:27;101356.78;;;10.54;95.65
70407;BME280;57821;52.202;0.154;2023-08-06T05:12:53;101370.59;;;10.53;96.03
70407;BME280;57821;52.202;0.154;2023-08-06T05:15:20;101374.94;;;10.54;96.28
70407;BME280;57821;52.202;0.154;2023-08-06T05:17:47;101374.06;;;10.53;95.60
70407;BME280;57821;52.202;0.154;2023-08-06T05:20:14;101371.47;;;10.55;96.12
70407;BME280;57821;52.202;0.154;2023-08-06T05:22:40;101376.66;;;10.52;96.15
70407;BME280;57821;52.202;0.154;2023-08-06T05:25:07;101379.25;;;10.56;96.26
70407;BME280;57821;52.202;0.154;2023-08-06T05:27:34;101371.47;;;10.52;96.03
70407;BME280;57821;52.202;0.154;2023-08-06T05:30:00;101383.63;;;10.59;95.96
70407;BME280;57821;52.202;0.154;2023-08-06T05:32:27;101377.53;;;10.57;96.16
70407;BME280;57821;52.202;0.154;2023-08-06T05:34:54;101384.47;;;10.61;96.33
70407;BME280;57821;52.202;0.154;2023-08-06T05:37:20;101387.06;;;10.59;96.21
70407;BME280;57821;52.202;0.154;2023-08-06T05:39:47;101399.22;;;10.65;96.06
70407;BME280;57821;52.202;0.154;2023-08-06T05:42:14;101388.81;;;10.63;95.64
70407;BME280;57821;52.202;0.154;2023-08-06T05:44:40;101405.28;;;10.68;96.34
70407;BME280;57821;52.202;0.154;2023-08-06T05:47:07;101407.88;;;10.70;95.92
70407;BME280;57821;52.202;0.154;2023-08-06T05:49:33;101410.50;;;10.75;95.69
70407;BME280;57821;52.202;0.154;2023-08-06T05:52:00;101407.91;;;10.75;95.80
70407;BME280;57821;52.202;0.154;2023-08-06T05:54:26;101418.31;;;10.79;95.79
70407;BME280;57821;52.202;0.154;2023-08-06T05:56:53;101418.31;;;10.81;95.54
70407;BME280;57821;52.202;0.154;2023-08-06T05:59:19;101408.78;;;10.80;96.05
70407;BME280;57821;52.202;0.154;2023-08-06T06:01:46;101428.72;;;10.85;95.80
70407;BME280;57821;52.202;0.154;2023-08-06T06:04:13;101430.47;;;10.91;95.21
70407;BME280;57821;52.202;0.154;2023-08-06T06:06:39;101428.75;;;10.91;95.78
70407;BME280;57821;52.202;0.154;2023-08-06T06:09:06;101434.84;;;10.98;95.15
70407;BME280;57821;52.202;0.154;2023-08-06T06:11:33;101432.25;;;10.95;95.29
70407;BME280;57821;52.202;0.154;2023-08-06T06:13:59;101445.25;;;11.04;95.71
70407;BME280;57821;52.202;0.154;2023-08-06T06:16:26;101440.06;;;11.07;95.51
70407;BME280;57821;52.202;0.154;2023-08-06T06:18:52;101445.25;;;11.07;95.54
70407;BME280;57821;52.202;0.154;2023-08-06T06:21:19;101447.03;;;11.14;95.47
70407;BME280;57821;52.202;0.154;2023-08-06T06:23:45;101453.09;;;11.15;95.12
70407;BME280;57821;52.202;0.154;2023-08-06T06:26:12;101460.91;;;11.21;95.22
70407;BME280;57821;52.202;0.154;2023-08-06T06:28:39;101447.09;;;11.23;94.75
70407;BME280;57821;52.202;0.154;2023-08-06T06:31:05;101459.22;;;11.30;95.11
70407;BME280;57821;52.202;0.154;2023-08-06T06:33:32;101458.41;;;11.34;94.26
70407;BME280;57821;52.202;0.154;2023-08-06T06:35:58;101467.91;;;11.35;94.30
70407;BME280;57821;52.202;0.154;2023-08-06T06:38:25;101457.56;;;11.41;94.92
70407;BME280;57821;52.202;0.154;2023-08-06T06:40:58;101459.31;;;11.45;94.68
70407;BME280;57821;52.202;0.154;2023-08-06T06:43:25;101443.69;;;11.42;94.70
70407;BME280;57821;52.202;0.154;2023-08-06T06:45:53;101447.16;;;11.44;94.04
70407;BME280;57821;52.202;0.154;2023-08-06T06:48:20;101464.56;;;11.62;94.05
70407;BME280;57821;52.202;0.154;2023-08-06T06:50:47;101464.56;;;11.67;94.29
70407;BME280;57821;52.202;0.154;2023-08-06T06:53:14;101462.84;;;11.69;94.17
70407;BME280;57821;52.202;0.154;2023-08-06T06:55:41;101477.59;;;11.77;93.37
70407;BME280;57821;52.202;0.154;2023-08-06T06:58:07;101478.50;;;11.81;93.21
70407;BME280;57821;52.202;0.154;2023-08-06T07:00:36;101471.56;;;11.80;93.55
70407;BME280;57821;52.202;0.154;2023-08-06T07:03:03;101475.03;;;11.85;93.85
70407;BME280;57821;52.202;0.154;2023-08-06T07:05:29;101481.97;;;11.95;93.06
70407;BME280;57821;52.202;0.154;2023-08-06T07:07:56;101486.34;;;11.98;93.91
70407;BME280;57821;52.202;0.154;2023-08-06T07:10:23;101489.81;;;12.03;93.69
70407;BME280;57821;52.202;0.154;2023-08-06T07:12:49;101491.56;;;12.11;93.88
70407;BME280;57821;52.202;0.154;2023-08-06T07:15:16;101485.47;;;12.12;93.41
70407;BME280;57821;52.202;0.154;2023-08-06T07:17:42;101493.28;;;12.24;92.93
70407;BME280;57821;52.202;0.154;2023-08-06T07:20:09;101492.47;;;12.28;92.95
70407;BME280;57821;52.202;0.154;2023-08-06T07:22:36;101484.66;;;12.28;92.54
70407;BME280;57821;52.202;0.154;2023-08-06T07:25:02;101489.84;;;12.41;92.86
70407;BME280;57821;52.202;0.154;2023-08-06T07:27:29;101491.59;;;12.46;92.20
70407;BME280;57821;52.202;0.154;2023-08-06T07:29:56;101488.09;;;12.47;92.31
70407;BME280;57821;52.202;0.154;2023-08-06T07:32:22;101498.50;;;12.59;92.20
70407;BME280;57821;52.202;0.154;2023-08-06T07:34:49;101504.59;;;12.63;91.80
70407;BME280;57821;52.202;0.154;2023-08-06T07:37:16;101499.38;;;12.70;91.01
70407;BME280;57821;52.202;0.154;2023-08-06T07:39:42;101508.94;;;12.79;91.14
70407;BME280;57821;52.202;0.154;2023-08-06T07:42:10;101481.16;;;12.76;91.04
70407;BME280;57821;52.202;0.154;2023-08-06T07:44:37;101514.13;;;12.93;91.46
70407;BME280;57821;52.202;0.154;2023-08-06T07:47:03;101508.88;;;13.00;91.21
70407;BME280;57821;52.202;0.154;2023-08-06T07:49:30;101511.50;;;13.09;90.86
70407;BME280;57821;52.202;0.154;2023-08-06T07:51:56;101510.63;;;13.12;90.96
70407;BME280;57821;52.202;0.154;2023-08-06T07:54:23;101516.69;;;13.25;90.99
70407;BME280;57821;52.202;0.154;2023-08-06T07:56:50;101519.28;;;13.31;91.24
70407;BME280;57821;52.202;0.154;2023-08-06T07:59:17;101532.25;;;13.43;91.23
70407;BME280;57821;52.202;0.154;2023-08-06T08:01:43;101516.63;;;13.49;90.98
70407;BME280;57821;52.202;0.154;2023-08-06T08:04:10;101520.03;;;13.60;90.46
70407;BME280;57821;52.202;0.154;2023-08-06T08:06:36;101533.03;;;13.69;90.01
70407;BME280;57821;52.202;0.154;2023-08-06T08:09:03;101520.84;;;13.77;88.65
70407;BME280;57821;52.202;0.154;2023-08-06T08:11:29;101523.41;;;13.80;88.45
70407;BME280;57821;52.202;0.154;2023-08-06T08:13:56;101534.69;;;13.88;87.76
70407;BME280;57821;52.202;0.154;2023-08-06T08:16:23;101527.69;;;13.96;87.87
70407;BME280;57821;52.202;0.154;2023-08-06T08:18:49;101531.16;;;14.02;86.96
70407;BME280;57821;52.202;0.154;2023-08-06T08:21:16;101522.41;;;14.06;87.09
70407;BME280;57821;52.202;0.154;2023-08-06T08:23:42;101523.25;;;14.11;87.45
70407;BME280;57821;52.202;0.154;2023-08-06T08:26:09;101525.00;;;14.12;86.79
70407;BME280;57821;52.202;0.154;2023-08-06T08:28:35;101515.38;;;14.18;85.62
70407;BME280;57821;52.202;0.154;2023-08-06T08:31:02;101517.97;;;14.26;86.25
70407;BME280;57821;52.202;0.154;2023-08-06T08:33:29;101531.84;;;14.31;85.86
70407;BME280;57821;52.202;0.154;2023-08-06T08:35:55;101535.28;;;14.36;85.76
70407;BME280;57821;52.202;0.154;2023-08-06T08:38:22;101527.44;;;14.42;85.30
70407;BME280;57821;52.202;0.154;2023-08-06T08:40:51;101521.34;;;14.43;85.19
70407;BME280;57821;52.202;0.154;2023-08-06T08:43:23;101541.22;;;14.56;84.14
70407;BME280;57821;52.202;0.154;2023-08-06T08:45:50;101536.88;;;14.61;84.40
70407;BME280;57821;52.202;0.154;2023-08-06T08:48:18;101539.44;;;14.66;83.14
70407;BME280;57821;52.202;0.154;2023-08-06T08:50:47;101552.44;;;14.70;83.17
70407;BME280;57821;52.202;0.154;2023-08-06T08:53:14;101540.19;;;14.78;82.98
70407;BME280;57821;52.202;0.154;2023-08-06T08:55:43;101540.16;;;14.85;83.76
70407;BME280;57821;52.202;0.154;2023-08-06T08:58:10;101540.94;;;14.93;82.02
70407;BME280;57821;52.202;0.154;2023-08-06T09:00:37;101552.19;;;14.98;82.13
70407;BME280;57821;52.202;0.154;2023-08-06T09:03:06;101528.69;;;15.02;81.57
70407;BME280;57821;52.202;0.154;2023-08-06T09:05:33;101542.38;;;15.21;81.83
70407;BME280;57821;52.202;0.154;2023-08-06T09:08:04;101556.22;;;15.32;81.35
70407;BME280;57821;52.202;0.154;2023-08-06T09:10:31;101554.38;;;15.40;81.74
70407;BME280;57821;52.202;0.154;2023-08-06T09:12:58;101552.50;;;15.51;80.88
70407;BME280;57821;52.202;0.154;2023-08-06T09:15:25;101550.69;;;15.61;81.12
70407;BME280;57821;52.202;0.154;2023-08-06T09:17:52;101552.41;;;15.65;80.60
70407;BME280;57821;52.202;0.154;2023-08-06T09:20:20;101566.28;;;15.70;79.20
70407;BME280;57821;52.202;0.154;2023-08-06T09:22:47;101565.34;;;15.73;79.23
70407;BME280;57821;52.202;0.154;2023-08-06T09:25:22;101567.97;;;15.73;79.93
70407;BME280;57821;52.202;0.154;2023-08-06T09:27:49;101568.81;;;15.78;78.95
70407;BME280;57821;52.202;0.154;2023-08-06T09:30:32;101572.19;;;15.86;79.69
70407;BME280;57821;52.202;0.154;2023-08-06T09:32:59;101570.34;;;15.94;79.28
70407;BME280;57821;52.202;0.154;2023-08-06T09:35:30;101575.53;;;15.97;78.94
70407;BME280;57821;52.202;0.154;2023-08-06T09:38:07;101586.78;;;16.03;76.58
70407;BME280;57821;52.202;0.154;2023-08-06T09:40:33;101578.84;;;16.08;77.37
70407;BME280;57821;52.202;0.154;2023-08-06T09:43:01;101584.91;;;16.13;77.69
70407;BME280;57821;52.202;0.154;2023-08-06T09:45:36;101576.97;;;16.19;77.24
70407;BME280;57821;52.202;0.154;2023-08-06T09:48:07;101586.34;;;16.35;78.49
70407;BME280;57821;52.202;0.154;2023-08-06T09:50:35;101590.47;;;16.52;78.11
70407;BME280;57821;52.202;0.154;2023-08-06T09:53:03;101588.47;;;16.69;78.70
70407;BME280;57821;52.202;0.154;2023-08-06T09:55:32;101585.78;;;16.75;75.70
70407;BME280;57821;52.202;0.154;2023-08-06T09:57:59;101584.53;;;16.96;76.21
70407;BME280;57821;52.202;0.154;2023-08-06T10:00:26;101590.34;;;17.13;74.95
70407;BME280;57821;52.202;0.154;2023-08-06T10:02:53;101592.63;;;17.33;75.46
70407;BME280;57821;52.202;0.154;2023-08-06T10:05:21;101606.28;;;17.50;74.20
70407;BME280;57821;52.202;0.154;2023-08-06T10:07:48;101598.09;;;17.70;72.50
70407;BME280;57821;52.202;0.154;2023-08-06T10:10:15;101598.50;;;17.91;72.35
70407;BME280;57821;52.202;0.154;2023-08-06T10:12:49;101584.16;;;18.08;72.33
70407;BME280;57821;52.202;0.154;2023-08-06T10:15:22;101594.06;;;18.35;74.26
70407;BME280;57821;52.202;0.154;2023-08-06T10:17:51;101602.28;;;18.58;70.06
70407;BME280;57821;52.202;0.154;2023-08-06T10:20:19;101600.06;;;18.78;69.79
70407;BME280;57821;52.202;0.154;2023-08-06T10:22:59;101598.91;;;18.90;68.42
70407;BME280;57821;52.202;0.154;2023-08-06T10:25:30;101598.50;;;19.05;67.44
70407;BME280;57821;52.202;0.154;2023-08-06T10:27:57;101609.38;;;19.27;68.13
70407;BME280;57821;52.202;0.154;2023-08-06T10:30:26;101608.88;;;19.45;66.72
70407;BME280;57821;52.202;0.154;2023-08-06T10:32:54;101600.78;;;19.53;66.44
70407;BME280;57821;52.202;0.154;2023-08-06T10:35:44;101623.47;;;19.57;62.18
70407;BME280;57821;52.202;0.154;2023-08-06T10:38:14;101612.34;;;19.47;62.00
70407;BME280;57821;52.202;0.154;2023-08-06T10:41:02;101611.47;;;19.47;63.77
70407;BME280;57821;52.202;0.154;2023-08-06T10:45:58;101614.16;;;19.45;64.11
70407;BME280;57821;52.202;0.154;2023-08-06T10:48:35;101603.69;;;19.42;61.35
70407;BME280;57821;52.202;0.154;2023-08-06T10:51:02;101616.81;;;19.44;61.67
70407;BME280;57821;52.202;0.154;2023-08-06T10:53:29;101606.09;;;19.51;61.65
70407;BME280;57821;52.202;0.154;2023-08-06T10:56:00;101608.47;;;19.62;61.29
70407;BME280;57821;52.202;0.154;2023-08-06T10:58:33;101622.50;;;19.61;60.13
70407;BME280;57821;52.202;0.154;2023-08-06T11:01:00;101621.72;;;19.57;59.45
70407;BME280;57821;52.202;0.154;2023-08-06T11:03:27;101620.00;;;19.56;59.49
70407;BME280;57821;52.202;0.154;2023-08-06T11:05:57;101617.13;;;19.65;59.55
70407;BME280;57821;52.202;0.154;2023-08-06T11:08:28;101614.09;;;19.79;60.61
70407;BME280;57821;52.202;0.154;2023-08-06T11:10:55;101618.22;;;19.88;59.68
70407;BME280;57821;52.202;0.154;2023-08-06T11:13:29;101621.75;;;19.87;58.77
70407;BME280;57821;52.202;0.154;2023-08-06T11:15:56;101620.13;;;19.83;58.04
70407;BME280;57821;52.202;0.154;2023-08-06T11:18:22;101618.34;;;19.85;58.99
70407;BME280;57821;52.202;0.154;2023-08-06T11:20:49;101612.91;;;19.91;58.09
70407;BME280;57821;52.202;0.154;2023-08-06T11:23:15;101618.06;;;19.94;58.10
70407;BME280;57821;52.202;0.154;2023-08-06T11:25:45;101607.47;;;19.97;57.59
70407;BME280;57821;52.202;0.154;2023-08-06T11:28:12;101614.50;;;19.96;55.10
70407;BME280;57821;52.202;0.154;2023-08-06T11:30:40;101612.63;;;20.00;57.22
70407;BME280;57821;52.202;0.154;2023-08-06T11:33:07;101617.16;;;19.95;55.56
70407;BME280;57821;52.202;0.154;2023-08-06T11:35:35;101611.19;;;19.88;55.74
70407;BME280;57821;52.202;0.154;2023-08-06T11:38:02;101613.25;;;19.79;54.79
70407;BME280;57821;52.202;0.154;2023-08-06T11:40:29;101608.28;;;19.68;56.30
70407;BME280;57821;52.202;0.154;2023-08-06T11:42:55;101605.59;;;19.69;56.69
70407;BME280;57821;52.202;0.154;2023-08-06T11:45:23;101615.16;;;19.74;56.58
70407;BME280;57821;52.202;0.154;2023-08-06T11:47:51;101608.00;;;19.77;57.46
70407;BME280;57821;52.202;0.154;2023-08-06T11:50:27;101606.41;;;19.72;57.65
70407;BME280;57821;52.202;0.154;2023-08-06T11:52:56;101603.75;;;19.73;56.97
70407;BME280;57821;52.202;0.154;2023-08-06T11:55:24;101608.13;;;19.74;56.72
70407;BME280;57821;52.202;0.154;2023-08-06T11:57:51;101603.78;;;19.72;57.16
70407;BME280;57821;52.202;0.154;2023-08-06T12:00:18;101605.50;;;19.74;56.26
70407;BME280;57821;52.202;0.154;2023-08-06T12:02:46;101597.38;;;19.80;56.35
70407;BME280;57821;52.202;0.154;2023-08-06T12:05:20;101605.81;;;19.93;57.42
70407;BME280;57821;52.202;0.154;2023-08-06T12:07:52;101605.56;;;20.02;55.29
70407;BME280;57821;52.202;0.154;2023-08-06T12:10:19;101607.28;;;20.03;53.83
70407;BME280;57821;52.202;0.154;2023-08-06T12:12:46;101611.84;;;19.96;52.66
70407;BME280;57821;52.202;0.154;2023-08-06T12:15:13;101604.28;;;19.86;52.52
70407;BME280;57821;52.202;0.154;2023-08-06T12:17:40;101596.44;;;19.83;54.08
70407;BME280;57821;52.202;0.154;2023-08-06T12:20:07;101594.72;;;19.82;55.62
70407;BME280;57821;52.202;0.154;2023-08-06T12:22:34;101599.84;;;19.86;55.99
70407;BME280;57821;52.202;0.154;2023-08-06T12:25:02;101599.81;;;19.88;56.77
70407;BME280;57821;52.202;0.154;2023-08-06T12:27:29;101609.53;;;19.86;55.27
70407;BME280;57821;52.202;0.154;2023-08-06T12:29:56;101603.59;;;19.79;55.05
70407;BME280;57821;52.202;0.154;2023-08-06T12:32:22;101607.97;;;19.79;55.93
70407;BME280;57821;52.202;0.154;2023-08-06T12:34:49;101596.63;;;19.77;55.55
70407;BME280;57821;52.202;0.154;2023-08-06T12:37:19;101601.91;;;19.75;55.44
70407;BME280;57821;52.202;0.154;2023-08-06T12:39:46;101603.81;;;19.70;55.01
70407;BME280;57821;52.202;0.154;2023-08-06T12:42:13;101611.09;;;19.62;54.37
70407;BME280;57821;52.202;0.154;2023-08-06T12:44:39;101609.59;;;19.52;53.74
70407;BME280;57821;52.202;0.154;2023-08-06T12:47:07;101613.28;;;19.45;53.67
70407;BME280;57821;52.202;0.154;2023-08-06T12:49:34;101610.84;;;19.37;53.02
70407;BME280;57821;52.202;0.154;2023-08-06T12:52:01;101610.91;;;19.34;53.30
70407;BME280;57821;52.202;0.154;2023-08-06T12:54:27;101617.03;;;19.35;52.44
70407;BME280;57821;52.202;0.154;2023-08-06T12:56:54;101605.75;;;19.31;54.27
70407;BME280;57821;52.202;0.154;2023-08-06T12:59:22;101600.56;;;19.28;54.69
70407;BME280;57821;52.202;0.154;2023-08-06T13:01:48;101613.66;;;19.29;54.49
70407;BME280;57821;52.202;0.154;2023-08-06T13:04:15;101615.56;;;19.24;54.53